Time;durP1;ratioP1;P1;durP2;ratioP2;P2;SDS_P1;SDS_P2;PMS_P1;PMS_P2;Temp;Humidity;BMP_temperature;BMP_pressure;BME280_temperature;BME280_humidity;BME280_pressure;Samples;Min_cycle;Max_cycle;Signal;HPM_P1;HPM_P2
2024/02/26 00:01:52;;;;;;;136.68;16.67;;;;;;;6.79;100.00;96287.44;5012183;28;20038;-62
2024/02/26 00:04:18;;;;;;;105.60;15.30;;;;;;;6.85;100.00;96288.19;5011933;28;20797;-59
2024/02/26 00:06:43;;;;;;;83.55;14.80;;;;;;;6.76;100.00;96289.19;5015177;28;20354;-61
2024/02/26 00:09:09;;;;;;;82.97;14.30;;;;;;;6.75;100.00;96289.19;5015743;28;20029;-61
2024/02/26 00:11:38;;;;;;;102.47;13.75;;;;;;;6.63;100.00;96288.53;5013317;28;20152;-57
2024/02/26 00:14:03;;;;;;;79.47;12.85;;;;;;;6.58;100.00;96284.31;5015994;28;20376;-60
2024/02/26 00:16:29;;;;;;;114.10;13.40;;;;;;;6.51;100.00;96288.69;5014242;28;20197;-59
2024/02/26 00:18:54;;;;;;;95.40;11.60;;;;;;;6.53;100.00;96284.34;5016111;28;20390;-59
2024/02/26 00:21:20;;;;;;;133.10;13.77;;;;;;;6.47;100.00;96289.63;5014316;28;20069;-61
2024/02/26 00:23:45;;;;;;;86.07;10.25;;;;;;;6.33;100.00;96285.50;5015992;28;20029;-61
2024/02/26 00:26:10;;;;;;;84.65;13.55;;;;;;;5.98;100.00;96284.22;5016200;28;20041;-59
2024/02/26 00:28:36;;;;;;;104.75;14.77;;;;;;;5.91;100.00;96285.16;5014663;28;20060;-62
2024/02/26 00:31:02;;;;;;;99.38;14.68;;;;;;;5.90;100.00;96284.28;5014231;28;20037;-59
2024/02/26 00:33:28;;;;;;;93.72;14.63;;;;;;;5.80;100.00;96286.16;5014878;28;20453;-59
2024/02/26 00:35:53;;;;;;;98.25;15.30;;;;;;;5.81;100.00;96287.84;5016669;28;20045;-61
2024/02/26 00:38:18;;;;;;;117.35;18.25;;;;;;;5.75;100.00;96280.16;5016422;28;20190;-60
2024/02/26 00:40:44;;;;;;;87.65;20.73;;;;;;;5.58;100.00;96270.94;5015012;28;20033;-61
2024/02/26 00:43:09;;;;;;;119.70;21.13;;;;;;;5.74;100.00;96270.72;5015845;28;20545;-60
2024/02/26 00:45:35;;;;;;;75.20;16.77;;;;;;;5.88;100.00;96272.28;5014897;28;20559;-58
2024/02/26 00:48:07;;;;;;;95.20;24.58;;;;;;;5.91;100.00;96265.38;5015476;28;20067;-62
2024/02/26 00:50:33;;;;;;;108.28;19.15;;;;;;;5.97;100.00;96257.56;5013248;28;20221;-60
2024/02/26 00:52:58;;;;;;;99.90;17.85;;;;;;;5.97;100.00;96259.28;5015619;28;20029;-58
2024/02/26 00:55:24;;;;;;;108.75;16.92;;;;;;;5.96;100.00;96266.19;5014584;28;20464;-60
2024/02/26 00:57:49;;;;;;;109.10;17.25;;;;;;;6.05;100.00;96254.91;5015600;28;20029;-59
2024/02/26 01:00:15;;;;;;;101.50;16.58;;;;;;;5.96;100.00;96255.00;5013866;28;20025;-59
2024/02/26 01:02:41;;;;;;;89.38;13.63;;;;;;;5.91;100.00;96262.81;5014720;28;20064;-60
2024/02/26 01:05:09;;;;;;;104.20;14.93;;;;;;;5.97;100.00;96252.38;5015359;28;20260;-59
2024/02/26 01:07:35;;;;;;;111.18;16.88;;;;;;;5.96;100.00;96252.41;5015413;28;20128;-58
2024/02/26 01:10:02;;;;;;;115.03;17.67;;;;;;;5.93;100.00;96255.88;5014802;28;20029;-62
2024/02/26 01:12:27;;;;;;;124.97;17.58;;;;;;;5.82;100.00;96258.59;5013547;28;20480;-60
2024/02/26 01:14:52;;;;;;;95.80;17.30;;;;;;;5.51;100.00;96263.25;5015107;28;20022;-58
2024/02/26 01:17:18;;;;;;;125.20;58.67;;;;;;;5.32;100.00;96273.78;5013810;28;20371;-60
2024/02/26 01:19:44;;;;;;;120.53;26.05;;;;;;;5.32;100.00;96266.03;5014162;28;20025;-58
2024/02/26 01:22:09;;;;;;;108.55;30.63;;;;;;;5.30;100.00;96263.47;5013530;28;20065;-58
2024/02/26 01:24:35;;;;;;;126.97;31.45;;;;;;;4.98;100.00;96263.78;5013230;28;20021;-59
2024/02/26 01:27:00;;;;;;;111.53;49.33;;;;;;;5.08;100.00;96265.41;5015083;28;20483;-59
2024/02/26 01:29:25;;;;;;;124.80;30.52;;;;;;;5.27;100.00;96263.50;5014259;28;20041;-60
2024/02/26 01:31:51;;;;;;;117.65;33.20;;;;;;;5.33;100.00;96263.44;5012091;28;20562;-61
2024/02/26 01:34:18;;;;;;;112.63;51.05;;;;;;;5.40;100.00;96261.66;5015028;28;20030;-60
2024/02/26 01:36:43;;;;;;;79.93;26.02;;;;;;;5.36;100.00;96265.16;5014556;28;20199;-58
2024/02/26 01:39:11;;;;;;;108.40;26.48;;;;;;;5.42;100.00;96270.22;5013852;28;20017;-59
2024/02/26 01:41:36;;;;;;;145.57;33.88;;;;;;;5.39;100.00;96275.44;5012732;28;20169;-61
2024/02/26 01:44:02;;;;;;;108.28;28.15;;;;;;;5.17;100.00;96267.06;5015700;28;20018;-58
2024/02/26 01:46:28;;;;;;;133.38;30.45;;;;;;;5.17;100.00;96274.78;5013081;28;20033;-61
2024/02/26 01:48:54;;;;;;;115.05;37.17;;;;;;;5.41;100.00;96267.66;5014941;28;20036;-60
2024/02/26 01:51:19;;;;;;;109.20;28.45;;;;;;;5.31;100.00;96266.91;5011390;28;20500;-58
2024/02/26 01:53:45;;;;;;;116.20;27.52;;;;;;;5.34;100.00;96267.72;5013709;28;20032;-58
2024/02/26 01:56:12;;;;;;;105.50;28.50;;;;;;;4.92;100.00;96262.97;5013578;28;20042;-60
2024/02/26 01:58:37;;;;;;;122.05;37.83;;;;;;;4.62;100.00;96258.91;5013172;28;20572;-60
2024/02/26 02:01:03;;;;;;;187.40;135.77;;;;;;;4.50;100.00;96247.00;5012925;28;20041;-61
2024/02/26 02:03:30;;;;;;;103.95;47.58;;;;;;;4.67;100.00;96260.59;5013199;28;20295;-59
2024/02/26 02:05:55;;;;;;;100.57;34.72;;;;;;;4.87;100.00;96263.88;5013711;28;20029;-60
2024/02/26 02:08:22;;;;;;;166.38;88.40;;;;;;;4.96;100.00;96256.06;5013477;28;20029;-61
2024/02/26 02:10:50;;;;;;;225.60;200.65;;;;;;;4.98;100.00;96253.47;5012506;28;20038;-59
2024/02/26 02:13:15;;;;;;;102.15;30.50;;;;;;;5.07;100.00;96243.94;5013295;28;20112;-60
2024/02/26 02:15:41;;;;;;;111.07;34.22;;;;;;;5.52;100.00;96250.34;5012595;28;20126;-58
2024/02/26 02:18:06;;;;;;;108.05;51.63;;;;;;;5.59;100.00;96253.72;5014472;28;20043;-58
2024/02/26 02:20:35;;;;;;;134.65;36.10;;;;;;;5.78;100.00;96254.34;5011751;28;20029;-58
2024/02/26 02:23:02;;;;;;;133.68;68.30;;;;;;;5.58;100.00;96250.31;5013218;28;20713;-60
2024/02/26 02:25:27;;;;;;;121.88;40.85;;;;;;;5.29;100.00;96251.47;5013289;28;20037;-57
2024/02/26 02:27:54;;;;;;;128.35;42.60;;;;;;;5.19;100.00;96252.41;5013517;28;20080;-63
2024/02/26 02:30:21;;;;;;;107.15;48.53;;;;;;;5.20;100.00;96249.81;5013340;28;20512;-59
2024/02/26 02:32:46;;;;;;;123.72;64.07;;;;;;;5.24;100.00;96245.50;5012829;28;20644;-60
2024/02/26 02:35:12;;;;;;;167.98;90.28;;;;;;;5.23;100.00;96253.25;5013330;28;20098;-60
2024/02/26 02:37:37;;;;;;;136.73;42.88;;;;;;;5.24;100.00;96255.81;5012225;28;20607;-57
2024/02/26 02:40:03;;;;;;;110.50;61.10;;;;;;;5.34;100.00;96252.25;5012692;28;20445;-59
2024/02/26 02:42:28;;;;;;;149.82;41.13;;;;;;;5.52;100.00;96254.66;5012361;28;20061;-62
2024/02/26 02:44:53;;;;;;;136.82;79.95;;;;;;;5.72;100.00;96254.44;5015265;28;20026;-58
2024/02/26 02:47:19;;;;;;;96.63;36.70;;;;;;;5.73;100.00;96249.22;5014309;28;20064;-60
2024/02/26 02:49:44;;;;;;;135.82;30.73;;;;;;;5.90;100.00;96244.75;5011854;28;20024;-57
2024/02/26 02:52:09;;;;;;;80.05;27.27;;;;;;;6.02;100.00;96244.59;5012729;28;20500;-59
2024/02/26 02:54:36;;;;;;;153.40;93.43;;;;;;;6.11;100.00;96243.63;5013728;28;20500;-60
2024/02/26 02:57:03;;;;;;;134.95;30.90;;;;;;;6.13;100.00;96244.50;5012046;28;20521;-60
2024/02/26 02:59:28;;;;;;;116.18;30.80;;;;;;;6.08;100.00;96241.97;5012269;28;20428;-58
2024/02/26 03:01:53;;;;;;;96.25;29.20;;;;;;;6.16;100.00;96253.91;5012613;28;20621;-60
2024/02/26 03:04:19;;;;;;;129.55;37.22;;;;;;;6.28;100.00;96248.59;5013716;28;20465;-60
2024/02/26 03:06:44;;;;;;;93.50;28.38;;;;;;;6.50;100.00;96250.84;5013584;28;20039;-57
2024/02/26 03:09:09;;;;;;;98.78;33.85;;;;;;;5.99;100.00;96254.97;5014016;28;20334;-59
2024/02/26 03:11:35;;;;;;;148.57;27.05;;;;;;;6.33;100.00;96248.50;5011861;28;20476;-60
2024/02/26 03:14:00;;;;;;;101.65;27.02;;;;;;;6.28;100.00;96253.75;5014244;28;20106;-60
2024/02/26 03:16:26;;;;;;;90.10;23.58;;;;;;;6.30;100.00;96254.56;5012214;28;20263;-57
2024/02/26 03:18:51;;;;;;;121.78;24.98;;;;;;;6.22;100.00;96249.50;5013591;28;20472;-61
2024/02/26 03:21:16;;;;;;;90.90;24.27;;;;;;;5.77;100.00;96254.38;5012393;28;20121;-60
2024/02/26 03:23:42;;;;;;;87.00;32.47;;;;;;;5.36;100.00;96249.69;5011279;28;20324;-60
2024/02/26 03:26:08;;;;;;;101.30;21.33;;;;;;;5.55;100.00;96241.72;5013122;28;20130;-60
2024/02/26 03:28:34;;;;;;;122.40;28.65;;;;;;;5.73;100.00;96244.06;5012744;28;20033;-59
2024/02/26 03:31:00;;;;;;;188.38;138.10;;;;;;;5.44;100.00;96228.97;5011785;28;20696;-59
2024/02/26 03:33:26;;;;;;;120.40;33.72;;;;;;;5.52;100.00;96234.00;5010668;28;20140;-58
2024/02/26 03:35:51;;;;;;;97.93;31.55;;;;;;;5.33;100.00;96229.94;5012830;28;20407;-61
2024/02/26 03:38:16;;;;;;;102.10;31.88;;;;;;;5.41;100.00;96232.44;5013049;28;20033;-58
2024/02/26 03:40:42;;;;;;;127.72;46.38;;;;;;;5.31;100.00;96238.56;5010051;28;20822;-61
2024/02/26 03:43:08;;;;;;;122.18;37.40;;;;;;;5.58;100.00;96241.69;5012476;28;20139;-58
2024/02/26 03:45:33;;;;;;;122.68;33.67;;;;;;;5.71;100.00;96238.09;5010203;28;20035;-59
2024/02/26 03:47:59;;;;;;;131.60;38.03;;;;;;;6.00;100.00;96246.34;5012611;28;20360;-57
2024/02/26 03:50:24;;;;;;;106.63;54.40;;;;;;;5.88;100.00;96241.31;5011631;28;20392;-60
2024/02/26 03:52:49;;;;;;;93.80;33.33;;;;;;;6.04;100.00;96239.44;5015098;28;20111;-61
2024/02/26 03:55:15;;;;;;;103.90;32.28;;;;;;;6.09;100.00;96245.41;5016707;28;20201;-58
2024/02/26 03:57:40;;;;;;;104.50;31.92;;;;;;;5.99;100.00;96239.47;5017118;28;20132;-57
2024/02/26 04:00:06;;;;;;;97.00;27.08;;;;;;;5.34;100.00;96239.38;5016499;28;20072;-61
2024/02/26 04:02:31;;;;;;;142.20;28.27;;;;;;;5.33;100.00;96232.53;5014791;28;20411;-59
2024/02/26 04:04:57;;;;;;;103.05;31.75;;;;;;;5.40;100.00;96235.00;5016181;28;20515;-60
2024/02/26 04:07:22;;;;;;;115.07;31.83;;;;;;;5.49;100.00;96239.22;5016420;28;20119;-61
2024/02/26 04:09:47;;;;;;;133.45;24.33;;;;;;;5.17;100.00;96243.84;5015100;28;20563;-62
2024/02/26 04:12:13;;;;;;;99.78;48.80;;;;;;;5.08;100.00;96249.94;5015742;28;20152;-61
2024/02/26 04:14:38;;;;;;;125.50;36.50;;;;;;;4.89;100.00;96246.69;5015850;28;20440;-60
2024/02/26 04:17:04;;;;;;;236.48;190.20;;;;;;;4.87;100.00;96243.28;5016002;28;20037;-63
2024/02/26 04:19:29;;;;;;;157.85;71.80;;;;;;;4.95;100.00;96246.63;5015037;28;20096;-59
2024/02/26 04:21:54;;;;;;;93.07;31.10;;;;;;;4.88;100.00;96250.13;5015227;28;20492;-62
2024/02/26 04:24:20;;;;;;;113.00;30.90;;;;;;;4.73;100.00;96253.69;5015760;28;20040;-60
2024/02/26 04:26:45;;;;;;;202.85;174.75;;;;;;;4.75;100.00;96257.13;5015158;28;20045;-61
2024/02/26 04:29:10;;;;;;;72.57;27.90;;;;;;;4.75;100.00;96260.53;5015068;28;20136;-60
2024/02/26 04:31:37;;;;;;;170.57;38.35;;;;;;;5.04;100.00;96264.59;5012676;28;20083;-60
2024/02/26 04:34:02;;;;;;;118.78;55.58;;;;;;;5.03;100.00;96267.16;5016578;28;20219;-58
2024/02/26 04:36:28;;;;;;;108.13;65.00;;;;;;;4.92;100.00;96273.28;5013758;28;20230;-60
2024/02/26 04:38:56;;;;;;;145.05;65.72;;;;;;;4.68;100.00;96270.03;5015132;28;20035;-60
2024/02/26 04:41:22;;;;;;;101.80;39.22;;;;;;;4.67;100.00;96260.59;5014241;28;20674;-59
2024/02/26 04:43:47;;;;;;;127.43;87.35;;;;;;;4.73;100.00;96272.56;5014451;28;20222;-59
2024/02/26 04:46:12;;;;;;;133.35;87.45;;;;;;;4.71;100.00;96270.88;5015241;28;20041;-58
2024/02/26 04:48:38;;;;;;;147.10;48.42;;;;;;;4.87;100.00;96280.19;5014538;28;20674;-59
2024/02/26 04:51:04;;;;;;;300.73;249.45;;;;;;;4.94;100.00;96283.56;5014328;28;20037;-61
2024/02/26 04:53:29;;;;;;;120.80;47.10;;;;;;;4.81;100.00;96286.25;5012579;28;20091;-58
2024/02/26 04:55:55;;;;;;;229.57;203.77;;;;;;;4.78;100.00;96283.69;5015119;28;20033;-60
2024/02/26 04:58:20;;;;;;;221.13;170.05;;;;;;;4.98;100.00;96290.41;5015157;28;20124;-62
2024/02/26 05:00:45;;;;;;;187.57;117.25;;;;;;;5.02;100.00;96283.50;5013164;28;20099;-59
2024/02/26 05:03:15;;;;;;;220.25;194.00;;;;;;;4.80;100.00;96279.38;5014143;28;20099;-59
2024/02/26 05:05:42;;;;;;;195.23;91.80;;;;;;;4.85;100.00;96289.66;5014255;28;20119;-58
2024/02/26 05:08:07;;;;;;;350.42;314.25;;;;;;;4.88;100.00;96287.06;5015423;28;20449;-60
2024/02/26 05:10:33;;;;;;;241.68;174.82;;;;;;;4.88;100.00;96296.50;5012826;28;20043;-59
2024/02/26 05:12:58;;;;;;;128.80;42.53;;;;;;;4.81;100.00;96287.97;5013682;28;20055;-58
2024/02/26 05:15:24;;;;;;;254.30;202.35;;;;;;;4.77;100.00;96291.44;5014271;28;20045;-58
2024/02/26 05:17:49;;;;;;;166.60;132.00;;;;;;;4.70;100.00;96290.63;5014324;28;20261;-60
2024/02/26 05:20:14;;;;;;;123.47;46.38;;;;;;;4.78;100.00;96283.69;5013759;28;20022;-57
2024/02/26 05:22:40;;;;;;;117.53;23.23;;;;;;;4.66;100.00;96287.22;5012875;28;20333;-61
2024/02/26 05:25:05;;;;;;;208.65;185.38;;;;;;;4.74;100.00;96287.16;5013967;28;20032;-61
2024/02/26 05:27:31;;;;;;;141.38;41.10;;;;;;;4.66;100.00;96283.78;5012685;28;20017;-61
2024/02/26 05:29:56;;;;;;;339.27;261.40;;;;;;;4.69;100.00;96288.91;5013144;28;20627;-57
2024/02/26 05:32:21;;;;;;;156.05;91.97;;;;;;;4.84;100.00;96292.22;5012525;28;20069;-58
2024/02/26 05:34:47;;;;;;;366.08;269.70;;;;;;;4.88;100.00;96286.19;5012553;28;20029;-57
2024/02/26 05:37:12;;;;;;;163.77;131.50;;;;;;;4.73;100.00;96285.44;5014313;28;20033;-59
2024/02/26 05:39:38;;;;;;;183.02;107.53;;;;;;;4.69;100.00;96291.50;5013256;28;20048;-62
2024/02/26 05:42:04;;;;;;;223.80;190.77;;;;;;;4.73;100.00;96293.19;5013963;28;20029;-58
2024/02/26 05:44:29;;;;;;;143.50;103.22;;;;;;;4.71;100.00;96288.91;5013861;28;20032;-57
2024/02/26 05:46:55;;;;;;;154.75;99.72;;;;;;;4.67;100.00;96281.19;5014102;28;20037;-58
2024/02/26 05:49:21;;;;;;;281.13;248.10;;;;;;;4.66;100.00;96291.50;5012705;28;20492;-60
2024/02/26 05:51:46;;;;;;;131.05;44.97;;;;;;;4.80;100.00;96294.81;5011773;28;20099;-58
2024/02/26 05:54:12;;;;;;;94.13;39.45;;;;;;;4.72;100.00;96290.63;5013242;28;20026;-58
2024/02/26 05:56:37;;;;;;;184.13;102.28;;;;;;;4.68;100.00;96303.50;5012038;28;20652;-62
2024/02/26 05:59:02;;;;;;;179.77;130.70;;;;;;;4.82;100.00;96303.41;5014487;28;20156;-57
2024/02/26 06:01:28;;;;;;;164.38;50.63;;;;;;;4.71;100.00;96296.63;5009625;28;20140;-58
2024/02/26 06:03:53;;;;;;;212.52;131.02;;;;;;;4.84;100.00;96302.53;5011978;28;20028;-58
2024/02/26 06:06:18;;;;;;;148.52;98.93;;;;;;;4.91;100.00;96299.06;5013122;28;20887;-59
2024/02/26 06:08:44;;;;;;;169.18;71.35;;;;;;;4.85;100.00;96304.25;5012334;28;20060;-57
2024/02/26 06:11:09;;;;;;;117.80;45.13;;;;;;;4.75;100.00;96309.47;5011784;28;20417;-58
2024/02/26 06:13:35;;;;;;;134.52;34.67;;;;;;;5.18;100.00;96317.72;5012029;28;20040;-57
2024/02/26 06:16:01;;;;;;;109.25;34.42;;;;;;;5.20;100.00;96314.25;5011101;28;20037;-58
2024/02/26 06:18:26;;;;;;;128.98;71.95;;;;;;;4.94;100.00;96306.75;5013768;28;20094;-57
2024/02/26 06:20:52;;;;;;;149.98;82.15;;;;;;;4.91;100.00;96315.38;5010945;28;20034;-59
2024/02/26 06:23:17;;;;;;;102.63;51.80;;;;;;;4.81;100.00;96313.72;5011853;28;20041;-58
2024/02/26 06:25:42;;;;;;;243.10;191.15;;;;;;;5.01;100.00;96316.13;5011179;28;20071;-60
2024/02/26 06:28:08;;;;;;;179.15;141.07;;;;;;;5.12;100.00;96323.78;5013540;28;20698;-59
2024/02/26 06:30:34;;;;;;;193.75;156.23;;;;;;;5.35;100.00;96325.31;5010772;28;20085;-60
2024/02/26 06:32:59;;;;;;;129.00;80.05;;;;;;;5.81;100.00;96328.28;5013186;28;20449;-58
2024/02/26 06:35:25;;;;;;;174.95;130.35;;;;;;;5.62;100.00;96322.47;5012734;28;20048;-60
2024/02/26 06:37:52;;;;;;;191.98;103.95;;;;;;;6.29;100.00;96343.22;5009951;28;20040;-59
2024/02/26 06:40:18;;;;;;;63.97;18.45;;;;;;;7.35;100.00;96346.81;5011030;28;20368;-60
2024/02/26 06:42:44;;;;;;;296.17;228.40;;;;;;;7.55;100.00;96343.06;5012210;28;20022;-58
2024/02/26 06:45:09;;;;;;;151.65;92.97;;;;;;;6.85;100.00;96328.66;5012517;28;20433;-59
2024/02/26 06:47:35;;;;;;;110.53;45.22;;;;;;;6.49;100.00;96330.03;5012723;28;20029;-59
2024/02/26 06:50:00;;;;;;;159.00;112.13;;;;;;;6.66;100.00;96335.84;5012377;28;20126;-59
2024/02/26 06:52:26;;;;;;;149.43;70.90;;;;;;;6.62;100.00;96332.47;5012274;28;20037;-60
2024/02/26 06:54:52;;;;;;;158.48;54.90;;;;;;;6.31;100.00;96333.72;5011343;28;20394;-57
2024/02/26 06:57:19;;;;;;;118.13;58.00;;;;;;;5.89;100.00;96338.50;5012428;28;20041;-58
2024/02/26 06:59:47;;;;;;;236.98;108.20;;;;;;;5.69;100.00;96342.16;5011744;28;20033;-57
2024/02/26 07:02:16;;;;;;;181.23;146.48;;;;;;;5.84;100.00;96346.31;5011883;28;20192;-58
2024/02/26 07:04:41;;;;;;;223.65;158.85;;;;;;;5.67;100.00;96347.34;5012147;28;20040;-57
2024/02/26 07:07:07;;;;;;;124.47;66.72;;;;;;;5.70;100.00;96346.44;5010096;28;20270;-56
2024/02/26 07:09:33;;;;;;;144.48;83.00;;;;;;;5.86;100.00;96349.72;5012391;28;20033;-59
2024/02/26 07:11:58;;;;;;;112.85;64.28;;;;;;;5.52;100.00;96353.50;5009596;28;20045;-58
2024/02/26 07:14:24;;;;;;;149.02;74.95;;;;;;;5.68;100.00;96350.78;5012389;28;20705;-58
2024/02/26 07:16:49;;;;;;;230.13;186.63;;;;;;;5.78;100.00;96346.34;5010876;28;20449;-59
2024/02/26 07:19:15;;;;;;;89.63;39.75;;;;;;;5.90;100.00;96353.97;5012827;28;20539;-60
2024/02/26 07:21:40;;;;;;;146.88;36.15;;;;;;;5.75;100.00;96354.16;5009929;28;20604;-58
2024/02/26 07:24:06;;;;;;;133.60;72.25;;;;;;;5.90;100.00;96369.44;5013012;28;20026;-58
2024/02/26 07:26:31;;;;;;;269.85;238.23;;;;;;;5.92;100.00;96361.69;5014100;28;20032;-58
2024/02/26 07:28:57;;;;;;;200.27;145.32;;;;;;;5.85;100.00;96361.78;5015257;28;20375;-59
2024/02/26 07:31:22;;;;;;;114.57;43.97;;;;;;;5.51;100.00;96367.28;5013931;28;20517;-60
2024/02/26 07:33:48;;;;;;;186.52;85.00;;;;;;;5.55;100.00;96368.09;5014437;28;20076;-59
2024/02/26 07:36:13;;;;;;;193.18;160.40;;;;;;;5.86;100.00;96367.78;5014292;28;20476;-59
2024/02/26 07:38:38;;;;;;;100.07;29.48;;;;;;;5.69;100.00;96361.09;5014561;28;20512;-59
2024/02/26 07:41:04;;;;;;;149.55;93.53;;;;;;;5.65;100.00;96369.72;5015233;28;20037;-61
2024/02/26 07:43:30;;;;;;;187.45;130.68;;;;;;;5.81;100.00;96361.81;5014449;28;20021;-61
2024/02/26 07:45:55;;;;;;;126.60;69.05;;;;;;;5.51;100.00;96364.69;5013656;28;20572;-58
2024/02/26 07:48:21;;;;;;;222.45;187.43;;;;;;;5.64;100.00;96377.47;5015105;28;20755;-59
2024/02/26 07:50:46;;;;;;;193.40;89.90;;;;;;;6.11;100.00;96378.72;5011750;28;20218;-58
2024/02/26 07:53:11;;;;;;;187.25;154.63;;;;;;;6.54;100.00;96381.66;5015715;28;20040;-60
2024/02/26 07:55:37;;;;;;;79.10;35.90;;;;;;;6.89;100.00;96387.19;5014274;28;20049;-57
2024/02/26 07:58:02;;;;;;;115.65;43.05;;;;;;;7.21;100.00;96391.03;5015269;28;20401;-58
2024/02/26 08:00:28;;;;;;;142.38;101.80;;;;;;;7.78;100.00;96383.19;5013920;28;20127;-58
2024/02/26 08:02:53;;;;;;;353.17;310.58;;;;;;;8.22;100.00;96393.59;5011551;28;20056;-57
2024/02/26 08:05:18;;;;;;;104.88;34.70;;;;;;;7.98;100.00;96380.22;5014769;28;20336;-59
2024/02/26 08:07:44;;;;;;;122.60;41.17;;;;;;;7.75;100.00;96383.22;5013938;28;20184;-58
2024/02/26 08:10:10;;;;;;;115.47;72.80;;;;;;;8.34;100.00;96384.72;5013411;28;20413;-58
2024/02/26 08:12:36;;;;;;;91.45;39.45;;;;;;;8.13;100.00;96379.06;5014690;28;20084;-59
2024/02/26 08:15:01;;;;;;;107.40;47.50;;;;;;;8.32;100.00;96384.75;5014004;28;20420;-59
2024/02/26 08:17:27;;;;;;;119.85;60.25;;;;;;;8.74;100.00;96383.06;5013493;28;20044;-59
2024/02/26 08:19:53;;;;;;;173.82;32.30;;;;;;;8.64;100.00;96386.75;5012617;28;20508;-58
2024/02/26 08:22:18;;;;;;;94.07;36.90;;;;;;;8.71;100.00;96401.25;5014030;28;20551;-57
2024/02/26 08:24:43;;;;;;;120.45;17.58;;;;;;;7.66;100.00;96398.06;5014352;28;20056;-58
2024/02/26 08:27:09;;;;;;;111.32;48.78;;;;;;;8.17;100.00;96392.84;5014475;28;20059;-57
2024/02/26 08:29:34;;;;;;;85.55;34.63;;;;;;;7.61;100.00;96399.84;5015029;28;20025;-57
2024/02/26 08:32:00;;;;;;;93.35;25.85;;;;;;;7.91;100.00;96389.84;5010616;28;20136;-58
2024/02/26 08:34:25;;;;;;;183.45;119.65;;;;;;;7.69;100.00;96392.81;5014198;28;20793;-59
2024/02/26 08:36:51;;;;;;;127.28;35.95;;;;;;;7.73;100.00;96406.56;5012020;28;20037;-57
2024/02/26 08:39:17;;;;;;;111.57;63.10;;;;;;;7.79;100.00;96409.03;5015235;28;20017;-59
2024/02/26 08:41:45;;;;;;;107.63;38.85;;;;;;;7.38;100.00;96410.56;5011691;28;20477;-58
2024/02/26 08:44:11;;;;;;;72.68;19.67;;;;;;;7.56;100.00;96406.84;5015047;28;20029;-60
2024/02/26 08:46:36;;;;;;;225.90;200.45;;;;;;;7.84;100.00;96408.97;5014704;28;20455;-58
2024/02/26 08:49:02;;;;;;;88.13;21.40;;;;;;;7.50;100.00;96409.53;5013379;28;20042;-58
2024/02/26 08:51:27;;;;;;;105.18;24.42;;;;;;;8.15;100.00;96407.53;5012123;28;20046;-57
2024/02/26 08:53:53;;;;;;;108.50;25.50;;;;;;;8.43;100.00;96405.25;5013140;28;20102;-60
2024/02/26 08:56:19;;;;;;;87.88;18.80;;;;;;;8.09;100.00;96400.72;5012805;28;20047;-59
2024/02/26 08:58:46;;;;;;;153.80;91.28;;;;;;;8.41;100.00;96409.63;5013442;28;20029;-58
2024/02/26 09:01:11;;;;;;;89.93;24.83;;;;;;;9.18;100.00;96400.22;5011664;28;20036;-57
2024/02/26 09:03:37;;;;;;;76.57;25.23;;;;;;;9.41;100.00;96404.88;5014814;28;20033;-58
2024/02/26 09:06:02;;;;;;;102.30;28.20;;;;;;;9.82;100.00;96404.72;5012510;28;20042;-58
2024/02/26 09:08:27;;;;;;;123.03;74.20;;;;;;;9.95;100.00;96407.00;5013750;28;20085;-60
2024/02/26 09:10:53;;;;;;;107.70;22.45;;;;;;;10.00;100.00;96394.75;5012369;28;20045;-58
2024/02/26 09:13:18;;;;;;;77.38;20.35;;;;;;;10.51;100.00;96395.97;5014419;28;20130;-60
2024/02/26 09:15:44;;;;;;;128.13;74.30;;;;;;;10.00;100.00;96397.34;5011911;28;20053;-57
2024/02/26 09:18:09;;;;;;;73.35;21.02;;;;;;;10.31;100.00;96400.88;5014020;28;20576;-59
2024/02/26 09:20:35;;;;;;;74.88;22.45;;;;;;;10.36;100.00;96396.38;5013408;28;20041;-60
2024/02/26 09:23:00;;;;;;;121.93;22.05;;;;;;;10.71;100.00;96397.13;5011910;28;20044;-60
2024/02/26 09:25:26;;;;;;;80.63;22.48;;;;;;;10.54;100.00;96398.47;5014134;28;20417;-60
2024/02/26 09:27:52;;;;;;;107.43;18.15;;;;;;;10.02;100.00;96401.59;5012192;28;20116;-60
2024/02/26 09:30:17;;;;;;;101.63;26.25;;;;;;;11.30;100.00;96400.56;5012007;28;20025;-61
2024/02/26 09:32:46;;;;;;;73.47;14.95;;;;;;;12.34;100.00;96393.66;5011656;28;20029;-57
2024/02/26 09:35:13;;;;;;;63.42;21.52;;;;;;;13.41;100.00;96391.31;5013457;28;20345;-59
2024/02/26 09:37:38;;;;;;;166.15;22.35;;;;;;;13.87;100.00;96395.59;5011033;28;20039;-58
2024/02/26 09:40:06;;;;;;;59.15;13.65;;;;;;;14.45;100.00;96407.03;5011921;28;20021;-61
2024/02/26 09:42:33;;;;;;;71.53;17.80;;;;;;;14.21;94.65;96397.69;5012577;28;20029;-57
2024/02/26 09:45:01;;;;;;;107.78;16.73;;;;;;;14.24;94.34;96397.53;5011718;28;20021;-59
2024/02/26 09:47:29;;;;;;;54.83;11.20;;;;;;;14.22;91.27;96384.56;5013348;28;20064;-59
2024/02/26 09:49:56;;;;;;;110.82;15.63;;;;;;;15.33;86.44;96390.03;5010925;28;20641;-60
2024/02/26 09:52:23;;;;;;;75.78;12.55;;;;;;;15.48;76.77;96389.25;5012054;28;20037;-60
2024/02/26 09:54:49;;;;;;;80.72;12.07;;;;;;;15.07;75.84;96392.13;5011736;28;20045;-60
2024/02/26 09:57:16;;;;;;;50.85;9.02;;;;;;;14.58;77.94;96383.81;5011795;28;20030;-57
2024/02/26 09:59:43;;;;;;;90.22;12.57;;;;;;;14.14;75.91;96384.03;5013029;28;20214;-59
2024/02/26 10:02:13;;;;;;;70.22;13.73;;;;;;;11.61;89.98;96395.25;5011268;28;20043;-58
2024/02/26 10:04:42;;;;;;;106.13;31.30;;;;;;;11.24;100.00;96384.28;5013417;28;20026;-58
2024/02/26 10:07:12;;;;;;;84.03;21.67;;;;;;;11.21;100.00;96390.41;5010525;28;20115;-61
2024/02/26 10:09:38;;;;;;;73.82;15.75;;;;;;;11.02;100.00;96382.38;5012389;28;20025;-61
2024/02/26 10:12:10;;;;;;;135.18;20.83;;;;;;;11.28;100.00;96368.50;5010594;28;20037;-60
2024/02/26 10:14:36;;;;;;;78.63;12.27;;;;;;;11.10;100.00;96362.13;5013220;28;20021;-57
2024/02/26 10:17:01;;;;;;;165.20;55.03;;;;;;;10.55;100.00;96362.94;5011186;28;20134;-58
2024/02/26 10:19:30;;;;;;;103.53;32.40;;;;;;;10.16;100.00;96366.59;5012648;28;20116;-60
2024/02/26 10:22:00;;;;;;;105.20;17.02;;;;;;;10.19;100.00;96369.13;5009653;28;20033;-59
2024/02/26 10:24:26;;;;;;;86.85;14.68;;;;;;;10.12;100.00;96378.84;5013137;28;20021;-59
2024/02/26 10:26:52;;;;;;;95.80;32.67;;;;;;;10.25;100.00;96376.72;5011572;28;20532;-56
2024/02/26 10:29:19;;;;;;;84.35;21.92;;;;;;;10.57;100.00;96378.50;5013181;28;20025;-61
2024/02/26 10:31:44;;;;;;;101.30;17.42;;;;;;;11.09;100.00;96375.22;5011352;28;20052;-57
2024/02/26 10:34:10;;;;;;;67.47;9.90;;;;;;;12.13;100.00;96376.16;5012216;28;20057;-60
2024/02/26 10:36:36;;;;;;;49.95;9.13;;;;;;;12.91;95.38;96381.97;5012663;28;20037;-58
2024/02/26 10:39:04;;;;;;;106.13;13.00;;;;;;;13.06;89.50;96385.75;5011157;28;20040;-56
2024/02/26 10:41:30;;;;;;;68.18;10.23;;;;;;;13.48;89.92;96394.56;5011461;28;20199;-59
2024/02/26 10:43:55;;;;;;;75.50;10.32;;;;;;;13.35;85.40;96393.34;5011797;28;20504;-58
2024/02/26 10:46:20;;;;;;;86.75;11.25;;;;;;;13.60;85.64;96390.63;5012064;28;20128;-57
2024/02/26 10:48:51;;;;;;;47.88;9.50;;;;;;;13.35;92.14;96390.72;5013310;28;20549;-62
2024/02/26 10:51:20;;;;;;;69.97;10.98;;;;;;;13.40;80.94;96397.47;5011687;28;20319;-56
2024/02/26 10:53:49;;;;;;;71.35;10.90;;;;;;;13.35;88.43;96403.78;5012525;28;20442;-60
2024/02/26 10:56:16;;;;;;;69.43;19.45;;;;;;;13.47;81.84;96402.47;5012296;28;20033;-58
2024/02/26 10:58:45;;;;;;;76.85;11.13;;;;;;;14.01;84.61;96397.63;5012199;28;20075;-59
2024/02/26 11:01:12;;;;;;;56.40;9.13;;;;;;;13.51;81.75;96404.91;5011809;28;20033;-59
2024/02/26 11:03:39;;;;;;;63.53;18.02;;;;;;;13.37;77.75;96410.63;5016584;28;20614;-56